createdAt,value
2022-10-24T00:00:35.647Z,10.80
2022-10-24T00:03:23.141Z,14.47
2022-10-24T00:06:12.164Z,13.33
2022-10-24T00:08:59.702Z,8.60
2022-10-24T00:11:47.229Z,12.13
2022-10-24T00:14:36.394Z,8.40
2022-10-24T00:17:23.860Z,17.50
2022-10-24T00:20:12.321Z,11.63
2022-10-24T00:22:59.762Z,12.37
2022-10-24T00:25:47.331Z,9.70
2022-10-24T00:28:37.869Z,13.13
2022-10-24T00:31:25.285Z,15.33
2022-10-24T00:34:13.272Z,12.30
2022-10-24T00:37:00.729Z,12.30
2022-10-24T00:39:48.185Z,11.40
2022-10-24T00:42:36.720Z,12.30
2022-10-24T00:45:41.212Z,12.13
2022-10-24T00:48:41.905Z,12.00
2022-10-24T00:51:34.060Z,11.00
2022-10-24T00:54:22.136Z,13.47
2022-10-24T00:57:30.183Z,16.20
2022-10-24T01:00:24.913Z,16.23
2022-10-24T01:03:13.300Z,14.60
2022-10-24T01:06:48.945Z,15.10
2022-10-24T01:10:21.775Z,13.00
2022-10-24T01:13:51.775Z,13.93
2022-10-24T01:16:54.855Z,13.80
2022-10-24T01:20:10.191Z,11.67
2022-10-24T01:23:29.552Z,14.57
2022-10-24T01:26:41.599Z,14.57
2022-10-24T01:30:02.137Z,11.97
2022-10-24T01:33:16.013Z,9.63
2022-10-24T01:36:26.441Z,14.70
2022-10-24T01:39:20.473Z,8.97
2022-10-24T01:42:12.095Z,11.07
2022-10-24T01:45:04.375Z,9.43
2022-10-24T01:47:56.596Z,7.70
2022-10-24T01:50:49.507Z,9.93
2022-10-24T01:53:38.436Z,9.77
2022-10-24T01:56:27.640Z,14.93
2022-10-24T01:59:30.354Z,13.83
2022-10-24T02:02:38.796Z,9.30
2022-10-24T02:05:38.075Z,11.13
2022-10-24T02:08:39.260Z,10.37
2022-10-24T02:11:26.906Z,11.90
2022-10-24T02:14:52.942Z,11.97
2022-10-24T02:17:40.466Z,12.57
2022-10-24T02:20:37.039Z,15.47
2022-10-24T02:23:54.920Z,11.90
2022-10-24T02:27:26.295Z,9.17
2022-10-24T02:30:22.246Z,8.43
2022-10-24T02:33:12.065Z,13.57
2022-10-24T02:36:01.832Z,14.23
2022-10-24T02:38:54.019Z,8.23
2022-10-24T02:41:44.971Z,12.73
2022-10-24T02:44:33.999Z,9.43
2022-10-24T02:47:24.530Z,14.67
2022-10-24T02:50:13.454Z,7.50
2022-10-24T02:53:01.351Z,9.47
2022-10-24T02:55:48.925Z,8.93
2022-10-24T02:58:36.574Z,12.30
2022-10-24T03:01:24.418Z,10.63
2022-10-24T03:04:12.419Z,11.70
2022-10-24T03:06:59.989Z,5.97
2022-10-24T03:09:47.514Z,11.17
2022-10-24T03:12:34.894Z,9.43
2022-10-24T03:15:22.745Z,13.67
2022-10-24T03:18:10.514Z,14.17
2022-10-24T03:20:57.986Z,9.57
2022-10-24T03:23:45.440Z,9.07
2022-10-24T03:26:32.934Z,11.13
2022-10-24T03:29:20.364Z,9.93
2022-10-24T03:32:08.225Z,10.23
2022-10-24T03:34:56.185Z,12.23
2022-10-24T03:37:44.109Z,10.77
2022-10-24T03:40:31.570Z,10.60
2022-10-24T03:43:20.005Z,14.03
2022-10-24T03:46:07.435Z,13.33
2022-10-24T03:48:54.875Z,8.47
2022-10-24T03:51:42.341Z,9.80
2022-10-24T03:54:29.805Z,11.07
2022-10-24T03:57:17.374Z,10.23
2022-10-24T04:00:07.170Z,12.33
2022-10-24T04:02:55.189Z,11.17
2022-10-24T04:05:42.597Z,12.37
2022-10-24T04:08:30.064Z,19.13
2022-10-24T04:11:17.539Z,12.33
2022-10-24T04:14:05.508Z,9.33
2022-10-24T04:16:53.045Z,9.77
2022-10-24T04:19:40.447Z,13.40
2022-10-24T04:22:27.955Z,9.27
2022-10-24T04:25:16.580Z,11.80
2022-10-24T04:28:04.794Z,10.07
2022-10-24T04:30:57.727Z,10.33
2022-10-24T04:33:45.276Z,8.90
2022-10-24T04:36:34.756Z,11.97
2022-10-24T04:39:22.306Z,13.47
2022-10-24T04:42:09.748Z,10.90
2022-10-24T04:44:57.205Z,11.80
2022-10-24T04:47:44.777Z,15.70
2022-10-24T04:50:32.755Z,11.60
2022-10-24T04:53:20.279Z,14.93
2022-10-24T04:56:08.071Z,13.77
2022-10-24T04:58:55.857Z,11.10
2022-10-24T05:01:43.406Z,15.07
2022-10-24T05:04:31.254Z,9.70
2022-10-24T05:07:20.750Z,11.67
2022-10-24T05:10:09.747Z,8.43
2022-10-24T05:12:57.543Z,9.40
2022-10-24T05:15:45.186Z,14.00
2022-10-24T05:18:33.424Z,15.67
2022-10-24T05:21:20.830Z,9.43
2022-10-24T05:24:08.574Z,16.17
2022-10-24T05:26:56.628Z,16.67
2022-10-24T05:29:44.120Z,14.60
2022-10-24T05:32:32.864Z,24.17
2022-10-24T05:35:22.411Z,15.47
2022-10-24T05:38:10.065Z,16.93
2022-10-24T05:40:57.604Z,17.97
2022-10-24T05:43:45.070Z,14.83
2022-10-24T05:46:32.806Z,18.10
2022-10-24T05:49:20.545Z,13.47
2022-10-24T05:52:07.993Z,13.17
2022-10-24T05:55:06.288Z,17.50
2022-10-24T05:57:54.991Z,18.97
2022-10-24T06:00:42.462Z,15.47
2022-10-24T06:03:29.946Z,18.07
2022-10-24T06:06:17.900Z,11.77
2022-10-24T06:09:05.400Z,17.83
2022-10-24T06:11:52.844Z,15.43
2022-10-24T06:14:40.950Z,18.17
2022-10-24T06:17:28.605Z,16.47
2022-10-24T06:20:16.125Z,18.10
2022-10-24T06:23:03.620Z,17.13
2022-10-24T06:25:51.110Z,28.00
2022-10-24T06:28:39.310Z,25.30
2022-10-24T06:31:26.825Z,19.60
2022-10-24T06:34:14.358Z,17.73
2022-10-24T06:37:01.952Z,25.30
2022-10-24T06:39:49.445Z,17.13
2022-10-24T06:42:37.316Z,32.97
2022-10-24T06:45:25.340Z,20.17
2022-10-24T06:48:12.970Z,14.67
2022-10-24T06:51:00.462Z,25.90
2022-10-24T06:53:47.902Z,25.93
2022-10-24T06:56:35.535Z,15.50
2022-10-24T06:59:22.990Z,19.87
2022-10-24T07:02:15.855Z,15.03
2022-10-24T07:05:03.875Z,15.97
2022-10-24T07:07:51.370Z,18.47
2022-10-24T07:10:38.878Z,20.83
2022-10-24T07:13:26.311Z,13.43
2022-10-24T07:16:13.877Z,16.83
2022-10-24T07:19:01.350Z,15.60
2022-10-24T07:21:48.746Z,21.20
2022-10-24T07:24:36.585Z,16.93
2022-10-24T07:27:24.706Z,11.83
2022-10-24T07:30:18.081Z,13.97
2022-10-24T07:33:06.655Z,15.87
2022-10-24T07:35:54.581Z,15.43
2022-10-24T07:38:42.009Z,16.47
2022-10-24T07:41:31.970Z,17.23
2022-10-24T07:44:19.366Z,11.43
2022-10-24T07:47:09.377Z,17.70
2022-10-24T07:49:57.306Z,17.73
2022-10-24T07:52:44.800Z,16.93
2022-10-24T07:55:32.389Z,15.30
2022-10-24T07:58:19.921Z,17.00
2022-10-24T08:01:12.110Z,18.77
2022-10-24T08:03:59.619Z,19.90
2022-10-24T08:06:47.085Z,18.00
2022-10-24T08:09:42.755Z,17.97
2022-10-24T08:12:30.265Z,19.43
2022-10-24T08:15:17.766Z,14.47
2022-10-24T08:18:05.315Z,14.67
2022-10-24T08:21:02.166Z,15.50
2022-10-24T08:23:53.585Z,16.40
2022-10-24T08:26:41.443Z,21.37
2022-10-24T08:29:28.970Z,19.73
2022-10-24T08:32:16.480Z,21.93
2022-10-24T08:35:05.788Z,19.13
2022-10-24T08:37:53.274Z,20.97
2022-10-24T08:40:40.986Z,17.57
2022-10-24T08:43:28.816Z,17.13
2022-10-24T08:46:38.121Z,17.00
2022-10-24T08:49:50.433Z,14.67
2022-10-24T08:52:50.008Z,16.73
2022-10-24T08:55:49.806Z,14.67
2022-10-24T08:58:45.036Z,16.40
2022-10-24T09:01:41.079Z,14.90
2022-10-24T09:04:40.466Z,16.37
2022-10-24T09:07:29.031Z,16.13
2022-10-24T09:10:26.280Z,20.83
2022-10-24T09:13:16.375Z,14.33
2022-10-24T09:16:05.606Z,21.97
2022-10-24T09:18:56.980Z,25.73
2022-10-24T09:21:46.878Z,15.73
2022-10-24T09:24:53.709Z,16.95
2022-10-24T09:27:42.551Z,15.70
2022-10-24T09:30:33.289Z,19.27
2022-10-24T09:33:33.786Z,12.77
2022-10-24T09:36:25.119Z,19.90
2022-10-24T09:39:34.820Z,17.42
2022-10-24T09:42:23.950Z,18.33
2022-10-24T09:45:21.024Z,11.82
2022-10-24T09:48:19.941Z,14.50
2022-10-24T09:51:08.670Z,13.50
2022-10-24T09:54:03.046Z,21.02
2022-10-24T09:57:12.468Z,17.80
2022-10-24T10:00:01.706Z,13.23
2022-10-24T10:03:22.512Z,14.85
2022-10-24T10:06:21.380Z,14.23
2022-10-24T10:09:15.600Z,12.98
2022-10-24T10:12:03.451Z,13.65
2022-10-24T10:14:52.411Z,12.20
2022-10-24T10:17:59.736Z,12.82
2022-10-24T10:20:59.330Z,12.73
2022-10-24T10:23:54.001Z,14.23
2022-10-24T10:26:46.149Z,13.70
2022-10-24T10:29:33.696Z,15.20
2022-10-24T10:32:33.637Z,17.27
2022-10-24T10:35:40.604Z,11.57
2022-10-24T10:38:58.983Z,14.65
2022-10-24T10:45:09.826Z,11.70
2022-10-24T10:48:43.884Z,17.60
2022-10-24T10:51:58.785Z,15.80
2022-10-24T10:55:07.746Z,16.20
2022-10-24T10:58:12.302Z,13.43
2022-10-24T11:01:28.219Z,14.15
2022-10-24T11:04:27.842Z,14.27
2022-10-24T11:07:30.243Z,11.27
2022-10-24T11:10:27.260Z,17.50
2022-10-24T11:13:27.070Z,14.30
2022-10-24T11:16:27.031Z,10.18
2022-10-24T11:19:43.419Z,15.00
2022-10-24T11:22:43.266Z,14.88
2022-10-24T11:26:18.526Z,9.73
2022-10-24T11:29:40.519Z,18.40
2022-10-24T11:32:49.330Z,14.25
2022-10-24T11:35:44.908Z,13.77
2022-10-24T11:38:40.380Z,11.15
2022-10-24T11:41:56.524Z,18.50
2022-10-24T11:44:56.399Z,12.95
2022-10-24T11:48:04.300Z,11.80
2022-10-24T11:51:15.855Z,13.75
2022-10-24T11:54:23.145Z,13.98
2022-10-24T11:57:22.004Z,13.18
2022-10-24T12:00:21.291Z,11.20
2022-10-24T12:03:46.120Z,14.57
2022-10-24T12:07:19.515Z,14.52
2022-10-24T12:10:34.470Z,15.27
2022-10-24T12:14:28.054Z,11.00
2022-10-24T12:17:39.540Z,12.98
2022-10-24T12:20:28.061Z,9.85
2022-10-24T12:23:27.609Z,10.48
2022-10-24T12:26:15.024Z,7.13
2022-10-24T12:29:07.585Z,10.80
2022-10-24T12:31:55.257Z,11.15
2022-10-24T12:34:49.320Z,11.43
2022-10-24T12:37:37.290Z,9.55
2022-10-24T12:40:52.321Z,10.35
2022-10-24T12:43:47.530Z,11.98
2022-10-24T12:46:53.355Z,7.70
2022-10-24T12:49:40.812Z,7.63
2022-10-24T12:52:31.098Z,13.00
2022-10-24T12:55:39.472Z,7.25
2022-10-24T12:58:36.070Z,9.60
2022-10-24T13:01:34.674Z,8.30
2022-10-24T13:05:06.835Z,8.68
2022-10-24T13:08:43.985Z,12.48
2022-10-24T13:11:58.240Z,7.78
2022-10-24T13:14:54.925Z,12.02
2022-10-24T13:18:33.891Z,17.05
2022-10-24T13:21:48.426Z,8.68
2022-10-24T13:24:40.760Z,10.52
2022-10-24T13:27:31.855Z,9.70
2022-10-24T13:30:27.441Z,8.25
2022-10-24T13:33:33.245Z,16.73
2022-10-24T13:36:28.202Z,8.82
2022-10-24T13:39:26.807Z,8.43
2022-10-24T13:42:37.632Z,11.20
2022-10-24T13:45:29.631Z,7.68
2022-10-24T13:48:23.345Z,12.30
2022-10-24T13:51:23.913Z,8.30
2022-10-24T13:54:27.480Z,10.30
2022-10-24T13:57:36.003Z,9.80
2022-10-24T14:00:32.920Z,10.52
2022-10-24T14:03:24.733Z,7.72
2022-10-24T14:06:13.361Z,9.30
2022-10-24T14:09:11.774Z,11.60
2022-10-24T14:11:59.384Z,14.13
2022-10-24T14:14:51.530Z,15.02
2022-10-24T14:17:38.960Z,9.15
2022-10-24T14:20:37.970Z,9.43
2022-10-24T14:23:35.721Z,9.87
2022-10-24T14:26:24.226Z,10.10
2022-10-24T14:29:31.298Z,9.10
2022-10-24T14:32:19.045Z,7.47
2022-10-24T14:35:07.138Z,9.65
2022-10-24T14:37:54.746Z,10.00
2022-10-24T14:40:44.712Z,8.30
2022-10-24T14:43:32.441Z,12.43
2022-10-24T14:46:38.646Z,10.97
2022-10-24T14:49:36.772Z,9.80
2022-10-24T14:52:45.841Z,6.72
2022-10-24T14:55:34.061Z,12.80
2022-10-24T14:58:25.970Z,10.70
2022-10-24T15:01:19.705Z,11.03
2022-10-24T15:04:07.583Z,10.40
2022-10-24T15:06:57.176Z,5.43
2022-10-24T15:10:19.397Z,11.97
2022-10-24T15:13:17.420Z,8.20
2022-10-24T15:16:05.212Z,6.30
2022-10-24T15:18:57.048Z,6.70
2022-10-24T15:21:46.457Z,7.85
2022-10-24T15:24:33.996Z,8.00
2022-10-24T15:27:47.058Z,7.07
2022-10-24T15:30:37.883Z,7.57
2022-10-24T15:33:25.363Z,9.73
2022-10-24T15:36:40.035Z,6.33
2022-10-24T15:39:27.561Z,6.07
2022-10-24T15:42:17.532Z,10.40
2022-10-24T15:45:14.688Z,13.83
2022-10-24T15:48:02.126Z,4.87
2022-10-24T15:50:49.657Z,6.57
2022-10-24T15:53:37.130Z,8.23
2022-10-24T15:56:24.810Z,9.53
2022-10-24T15:59:12.330Z,7.47
2022-10-24T16:02:03.180Z,11.10
2022-10-24T16:04:51.060Z,7.05
2022-10-24T16:07:38.493Z,13.07
2022-10-24T16:10:26.027Z,4.35
2022-10-24T16:13:15.100Z,6.00
2022-10-24T16:16:02.583Z,6.60
2022-10-24T16:18:50.049Z,5.13
2022-10-24T16:21:39.871Z,7.70
2022-10-24T16:24:28.842Z,4.72
2022-10-24T16:27:16.320Z,7.70
2022-10-24T16:30:04.606Z,4.03
2022-10-24T16:32:52.717Z,7.00
2022-10-24T16:35:41.640Z,4.43
2022-10-24T16:38:31.586Z,7.47
2022-10-24T16:41:24.201Z,3.17
2022-10-24T16:44:13.407Z,2.88
2022-10-24T16:47:00.820Z,13.53
2022-10-24T16:49:48.310Z,9.32
2022-10-24T16:52:35.696Z,2.25
2022-10-24T16:55:23.690Z,4.03
2022-10-24T16:58:11.196Z,2.20
2022-10-24T17:01:05.076Z,4.13
2022-10-24T17:03:52.624Z,2.20
2022-10-24T17:06:40.234Z,13.93
2022-10-24T17:09:27.940Z,3.53
2022-10-24T17:12:15.500Z,3.42
2022-10-24T17:15:03.568Z,2.40
2022-10-24T17:17:51.147Z,6.30
2022-10-24T17:20:45.185Z,4.37
2022-10-24T17:23:34.446Z,2.53
2022-10-24T17:26:22.166Z,2.45
2022-10-24T17:29:18.165Z,2.00
2022-10-24T17:32:06.900Z,3.40
2022-10-24T17:34:55.488Z,2.40
2022-10-24T17:38:37.345Z,2.90
2022-10-24T17:41:37.265Z,2.30
2022-10-24T17:44:25.082Z,3.00
2022-10-24T17:47:12.695Z,7.00
2022-10-24T17:50:00.120Z,3.97
2022-10-24T17:52:51.309Z,2.47
2022-10-24T17:55:47.793Z,3.70
2022-10-24T17:58:35.685Z,2.37
2022-10-24T18:01:23.289Z,2.50
2022-10-24T18:04:10.844Z,2.17
2022-10-24T18:06:58.326Z,1.83
2022-10-24T18:09:45.714Z,4.90
2022-10-24T18:12:39.930Z,1.80
2022-10-24T18:15:27.371Z,3.10
2022-10-24T18:18:14.920Z,5.63
2022-10-24T18:21:16.205Z,7.33
2022-10-24T18:24:07.949Z,3.57
2022-10-24T18:26:55.395Z,5.17
2022-10-24T18:29:42.867Z,2.23
2022-10-24T18:32:30.360Z,2.20
2022-10-24T18:35:17.952Z,2.60
2022-10-24T18:38:05.381Z,4.73
2022-10-24T18:40:53.464Z,9.40
2022-10-24T18:43:41.321Z,3.10
2022-10-24T18:46:30.581Z,2.70
2022-10-24T18:49:18.937Z,2.13
2022-10-24T18:52:43.315Z,3.87
2022-10-24T18:55:33.798Z,9.50
2022-10-24T18:58:21.370Z,3.30
2022-10-24T19:01:39.136Z,5.90
2022-10-24T19:04:27.019Z,3.07
2022-10-24T19:07:14.608Z,3.80
2022-10-24T19:10:02.228Z,3.83
2022-10-24T19:12:51.284Z,5.30
2022-10-24T19:15:53.773Z,3.83
2022-10-24T19:18:49.878Z,6.50
2022-10-24T19:21:37.450Z,3.87
2022-10-24T19:24:25.160Z,3.93
2022-10-24T19:27:12.580Z,11.10
2022-10-24T19:30:00.006Z,2.87
2022-10-24T19:32:48.161Z,3.20
2022-10-24T19:35:47.492Z,2.83
2022-10-24T19:38:35.203Z,2.33
2022-10-24T19:41:23.619Z,3.63
2022-10-24T19:44:11.215Z,2.00
2022-10-24T19:46:58.745Z,6.83
2022-10-24T19:49:46.195Z,2.10
2022-10-24T19:52:33.652Z,2.07
2022-10-24T19:55:22.845Z,2.77
2022-10-24T19:58:19.142Z,3.50
2022-10-24T20:01:17.972Z,3.10
2022-10-24T20:04:05.933Z,2.93
2022-10-24T20:06:53.305Z,2.30
2022-10-24T20:09:40.746Z,2.67
2022-10-24T20:12:28.188Z,2.47
2022-10-24T20:15:15.963Z,2.57
2022-10-24T20:18:03.413Z,2.17
2022-10-24T20:20:51.561Z,5.77
2022-10-24T20:23:41.300Z,4.20
2022-10-24T20:26:28.859Z,2.53
2022-10-24T20:29:16.352Z,2.27
2022-10-24T20:32:03.949Z,1.70
2022-10-24T20:34:51.590Z,2.70
2022-10-24T20:37:39.042Z,5.40
2022-10-24T20:40:27.401Z,4.37
2022-10-24T20:43:17.477Z,3.20
2022-10-24T20:46:06.800Z,1.57
2022-10-24T20:48:54.310Z,3.63
2022-10-24T20:51:43.761Z,2.03
2022-10-24T20:54:31.227Z,3.30
2022-10-24T20:57:18.664Z,2.13
2022-10-24T21:00:07.840Z,7.63
2022-10-24T21:02:55.250Z,17.00
2022-10-24T21:05:42.699Z,2.80
2022-10-24T21:08:30.505Z,2.00
2022-10-24T21:11:26.181Z,7.77
2022-10-24T21:14:15.458Z,2.60
2022-10-24T21:17:02.900Z,3.23
2022-10-24T21:19:50.401Z,1.53
2022-10-24T21:22:37.876Z,1.60
2022-10-24T21:25:25.336Z,5.20
2022-10-24T21:28:12.741Z,1.70
2022-10-24T21:31:11.720Z,1.73
2022-10-24T21:33:59.188Z,9.10
2022-10-24T21:36:47.665Z,1.90
2022-10-24T21:39:35.233Z,8.67
2022-10-24T21:45:10.640Z,2.10
2022-10-24T21:47:58.063Z,1.83
2022-10-24T21:53:41.610Z,13.50
2022-10-24T21:56:33.153Z,3.00
2022-10-24T21:59:22.337Z,2.03
2022-10-24T22:02:10.865Z,2.73
2022-10-24T22:04:58.631Z,8.90
2022-10-24T22:07:47.581Z,1.97
2022-10-24T22:10:37.087Z,1.73
2022-10-24T22:13:24.701Z,1.77
2022-10-24T22:16:14.369Z,2.17
2022-10-24T22:19:04.725Z,12.47
2022-10-24T22:21:52.301Z,1.97
2022-10-24T22:24:39.744Z,8.40
2022-10-24T22:27:27.241Z,3.07
2022-10-24T22:30:14.682Z,1.83
2022-10-24T22:33:02.591Z,1.77
2022-10-24T22:35:59.715Z,2.83
2022-10-24T22:38:47.581Z,2.20
2022-10-24T22:41:35.408Z,4.23
2022-10-24T22:44:23.570Z,5.07
2022-10-24T22:47:33.221Z,4.20
2022-10-24T22:50:26.682Z,15.10
2022-10-24T22:53:19.756Z,2.17
2022-10-24T22:56:27.425Z,2.97
2022-10-24T22:59:15.438Z,8.70
2022-10-24T23:02:31.711Z,4.00
2022-10-24T23:05:30.085Z,2.23
2022-10-24T23:08:38.432Z,2.47
2022-10-24T23:11:27.423Z,13.53
2022-10-24T23:17:04.430Z,2.87
2022-10-24T23:19:53.300Z,2.50
2022-10-24T23:22:44.689Z,1.67
2022-10-24T23:25:33.209Z,2.60
2022-10-24T23:29:10.581Z,5.07
2022-10-24T23:31:59.142Z,2.77
2022-10-24T23:34:48.002Z,3.03
2022-10-24T23:37:38.551Z,2.33
2022-10-24T23:40:37.198Z,19.57
2022-10-24T23:43:25.210Z,2.17
2022-10-24T23:46:43.520Z,1.87
2022-10-24T23:50:11.070Z,2.10
2022-10-24T23:53:38.580Z,1.60
2022-10-24T23:56:30.759Z,1.83
2022-10-24T23:59:18.148Z,2.80
